International Virtual Aviation Organisation

Russian Federation and Kazakhstan MCD

 

Карточка аэропорта USHH

Внимание!
Информация на этой странице в стадии наполнения.
Если вы не увидели какой-то информации, или заметили неточность - пожалуйста сообщите нам!
Спасибо!
Команда RU-STAFF
Название аэропортаХанты-Мансийск
Название аэропорта (англ.)Khanty-Mansiysk
Превышение141 ft. (43 m.)
Координаты61°1.7039999999999', 69°5.1599999999999'
Высота перехода800m
Эшелон переходаFL050
Коды ответчика5150-5177
Зона ОрВДТюмень РПИ (USTV)
Данные METARUSHH 091430Z 03003MPS CAVOK 21/19 Q1003 R06/010060 NOSIG
Проноз погоды (TAF)USHH 091342Z 0915/1015 05003G12MPS 9999 BKN016CB TEMPO 0915/1001 VRB20MPS 1500 TSRA SQ BKN005 OVC011CB TEMPO 1001/1003 1000 SHRA BR SCT003 BKN016CB BECMG 1001/1002 14003G12MPS TEMPO 1003/1015 VRB20MPS 4000 -TSRA SQ BKN003 OVC011CB
NOTAMshow/hide NOTAM
AWOS   TABLE

Информация о ВПП

ВПП Длина ВПП (м.) Покрытие Курс ВПП Частота ILS
062800Асфальтобетон58111.9
242800Асфальтобетон238110.1

Диспетчерские позиции

Позывной Наименование органа УВД Частота
USHH_R_APPХантым-Круг120.4
USHH_TWRХантым-Вышка118.1



Спутниковое изображение